createdAt,value
2022-09-13T00:03:42.727Z,13.45
2022-09-13T00:06:12.476Z,10.80
2022-09-13T00:08:42.872Z,16.38
2022-09-13T00:14:10.940Z,19.05
2022-09-13T00:16:41.218Z,14.52
2022-09-13T00:19:10.968Z,12.63
2022-09-13T00:21:38.603Z,13.70
2022-09-13T00:24:06.765Z,15.48
2022-09-13T00:26:34.448Z,18.33
2022-09-13T00:29:03.288Z,15.32
2022-09-13T00:31:32.152Z,15.23
2022-09-13T00:34:01.795Z,17.45
2022-09-13T00:36:37.106Z,14.63
2022-09-13T00:39:05.477Z,16.65
2022-09-13T00:41:36.187Z,15.55
2022-09-13T00:44:04.960Z,14.18
2022-09-13T00:46:52.408Z,16.80
2022-09-13T00:49:24.279Z,19.20
2022-09-13T00:52:07.814Z,16.90
2022-09-13T00:54:44.263Z,14.32
2022-09-13T00:57:14.013Z,18.73
2022-09-13T00:59:47.523Z,13.25
2022-09-13T01:02:16.750Z,15.38
2022-09-13T01:04:47.629Z,14.25
2022-09-13T01:07:17.911Z,13.52
2022-09-13T01:09:51.025Z,14.15
2022-09-13T01:12:23.987Z,12.32
2022-09-13T01:14:52.803Z,17.08
2022-09-13T01:17:23.607Z,12.50
2022-09-13T01:19:50.905Z,14.20
2022-09-13T01:22:53.026Z,14.63
2022-09-13T01:25:47.075Z,12.70
2022-09-13T01:28:17.575Z,14.55
2022-09-13T01:34:13.540Z,16.45
2022-09-13T01:36:59.720Z,15.90
2022-09-13T01:39:48.736Z,15.48
2022-09-13T01:42:48.469Z,16.58
2022-09-13T01:45:46.470Z,25.45
2022-09-13T01:49:02.073Z,16.30
2022-09-13T01:52:06.430Z,16.50
2022-09-13T01:54:49.005Z,12.98
2022-09-13T01:57:18.790Z,16.23
2022-09-13T01:59:53.969Z,15.65
2022-09-13T02:06:13.533Z,16.17
2022-09-13T02:08:57.304Z,17.10
2022-09-13T02:11:25.167Z,19.48
2022-09-13T02:14:10.275Z,22.88
2022-09-13T02:16:55.071Z,17.73
2022-09-13T02:19:47.511Z,19.80
2022-09-13T02:22:24.066Z,20.88
2022-09-13T02:24:58.237Z,17.60
2022-09-13T02:27:29.405Z,18.85
2022-09-13T02:30:07.779Z,19.60
2022-09-13T02:32:42.071Z,21.45
2022-09-13T02:35:42.224Z,21.63
2022-09-13T02:38:24.753Z,17.88
2022-09-13T02:41:06.592Z,17.42
2022-09-13T02:43:42.514Z,26.58
2022-09-13T02:46:32.682Z,20.85
2022-09-13T02:49:26.747Z,21.33
2022-09-13T02:52:28.179Z,23.08
2022-09-13T02:55:14.888Z,22.15
2022-09-13T02:58:03.799Z,27.33
2022-09-13T03:00:33.154Z,22.77
2022-09-13T03:03:07.036Z,20.27
2022-09-13T03:05:35.922Z,21.10
2022-09-13T03:08:06.364Z,28.10
2022-09-13T03:13:34.450Z,21.85
2022-09-13T03:16:33.736Z,23.77
2022-09-13T03:19:39.948Z,23.05
2022-09-13T03:22:11.059Z,19.65
2022-09-13T03:25:14.146Z,20.50
2022-09-13T03:28:13.748Z,18.40
2022-09-13T03:30:51.445Z,19.58
2022-09-13T03:33:48.676Z,23.73
2022-09-13T03:36:24.746Z,19.10
2022-09-13T03:39:05.920Z,22.85
2022-09-13T03:41:40.140Z,22.25
2022-09-13T03:44:14.301Z,21.35
2022-09-13T03:46:49.091Z,21.23
2022-09-13T03:49:18.680Z,17.75
2022-09-13T03:51:50.151Z,19.37
2022-09-13T03:54:25.505Z,18.77
2022-09-13T03:57:13.015Z,20.08
2022-09-13T03:59:47.178Z,20.58
2022-09-13T04:02:15.825Z,18.42
2022-09-13T04:04:45.448Z,20.83
2022-09-13T04:07:16.078Z,17.40
2022-09-13T04:09:43.834Z,20.95
2022-09-13T04:12:14.784Z,20.83
2022-09-13T04:14:44.771Z,21.55
2022-09-13T04:17:14.409Z,20.35
2022-09-13T04:19:42.853Z,21.40
2022-09-13T04:22:10.200Z,19.95
2022-09-13T04:24:39.058Z,22.75
2022-09-13T04:27:07.150Z,25.52
2022-09-13T04:29:35.144Z,19.80
2022-09-13T04:32:03.354Z,24.85
2022-09-13T04:34:31.842Z,20.55
2022-09-13T04:37:03.422Z,20.92
2022-09-13T04:39:35.190Z,26.92
2022-09-13T04:42:04.265Z,23.30
2022-09-13T04:44:35.442Z,29.25
2022-09-13T04:47:03.260Z,30.13
2022-09-13T04:49:33.693Z,30.30
2022-09-13T04:54:35.571Z,38.90
2022-09-13T04:57:04.435Z,43.42
2022-09-13T04:59:35.280Z,40.45
2022-09-13T05:02:03.948Z,33.55
2022-09-13T05:04:32.021Z,33.10
2022-09-13T05:06:59.629Z,37.22
2022-09-13T05:09:28.301Z,31.67
2022-09-13T05:11:55.807Z,38.25
2022-09-13T05:14:23.423Z,39.65
2022-09-13T05:16:50.781Z,30.08
2022-09-13T05:19:18.517Z,34.95
2022-09-13T05:21:47.799Z,33.08
2022-09-13T05:24:15.584Z,31.17
2022-09-13T05:26:43.265Z,27.48
2022-09-13T05:29:10.771Z,26.63
2022-09-13T05:31:41.178Z,24.52
2022-09-13T05:34:14.734Z,26.45
2022-09-13T05:36:44.899Z,21.02
2022-09-13T05:39:32.045Z,21.27
2022-09-13T05:42:07.255Z,22.73
2022-09-13T05:44:35.570Z,23.52
2022-09-13T05:47:04.352Z,20.77
2022-09-13T05:49:33.183Z,23.20
2022-09-13T05:52:17.650Z,34.92
2022-09-13T05:54:46.320Z,19.30
2022-09-13T05:57:15.828Z,26.52
2022-09-13T05:59:43.090Z,24.58
2022-09-13T06:02:12.834Z,28.40
2022-09-13T06:08:05.559Z,22.45
2022-09-13T06:10:35.350Z,19.60
2022-09-13T06:13:03.409Z,22.02
2022-09-13T06:15:31.615Z,19.85
2022-09-13T06:18:03.092Z,20.70
2022-09-13T06:20:32.071Z,18.80
2022-09-13T06:23:01.703Z,19.92
2022-09-13T06:27:58.541Z,30.17
2022-09-13T06:30:26.605Z,26.88
2022-09-13T06:32:57.154Z,49.45
2022-09-13T06:37:57.567Z,34.28
2022-09-13T06:40:25.876Z,27.17
2022-09-13T06:42:53.612Z,26.88
2022-09-13T06:45:21.923Z,25.77
2022-09-13T06:47:50.095Z,27.77
2022-09-13T06:50:18.344Z,30.60
2022-09-13T06:52:45.949Z,26.13
2022-09-13T06:55:13.386Z,28.65
2022-09-13T06:57:41.887Z,27.88
2022-09-13T07:00:10.344Z,29.65
2022-09-13T07:02:37.852Z,28.85
2022-09-13T07:05:05.873Z,25.48
2022-09-13T07:07:33.752Z,28.63
2022-09-13T07:10:03.210Z,28.27
2022-09-13T07:12:33.504Z,27.02
2022-09-13T07:15:04.630Z,25.58
2022-09-13T07:17:34.062Z,28.15
2022-09-13T07:20:07.197Z,29.43
2022-09-13T07:22:37.655Z,31.90
2022-09-13T07:25:05.426Z,34.28
2022-09-13T07:27:33.123Z,32.38
2022-09-13T07:30:03.215Z,36.55
2022-09-13T07:32:33.435Z,33.35
2022-09-13T07:35:08.351Z,32.88
2022-09-13T07:37:35.807Z,35.55
2022-09-13T07:40:03.943Z,35.03
2022-09-13T07:42:32.408Z,36.42
2022-09-13T07:45:04.532Z,40.50
2022-09-13T07:47:34.043Z,45.13
2022-09-13T07:50:04.735Z,40.50
2022-09-13T07:52:37.976Z,38.17
2022-09-13T07:55:06.965Z,43.13
2022-09-13T07:57:35.237Z,48.83
2022-09-13T08:00:05.780Z,43.30
2022-09-13T08:02:39.942Z,46.58
2022-09-13T08:05:07.955Z,47.63
2022-09-13T08:07:35.434Z,45.83
2022-09-13T08:10:05.724Z,43.88
2022-09-13T08:15:02.867Z,38.67
2022-09-13T08:17:33.482Z,38.43
2022-09-13T08:20:06.331Z,35.15
2022-09-13T08:22:34.756Z,35.10
2022-09-13T08:25:05.386Z,30.88
2022-09-13T08:27:33.112Z,34.53
2022-09-13T08:30:02.220Z,35.28
2022-09-13T08:32:45.893Z,40.15
2022-09-13T08:35:14.983Z,33.55
2022-09-13T08:37:42.813Z,35.30
2022-09-13T08:40:11.478Z,31.98
2022-09-13T08:43:06.054Z,30.27
2022-09-13T08:45:35.546Z,29.58
2022-09-13T08:48:15.858Z,30.67
2022-09-13T08:50:45.633Z,29.90
2022-09-13T08:55:57.421Z,28.25
2022-09-13T08:58:49.567Z,27.33
2022-09-13T09:01:42.128Z,30.02
2022-09-13T09:04:23.770Z,31.70
2022-09-13T09:06:57.851Z,30.33
2022-09-13T09:09:26.630Z,24.23
2022-09-13T09:12:17.351Z,29.00
2022-09-13T09:15:02.744Z,23.83
2022-09-13T09:17:47.808Z,27.48
2022-09-13T09:20:24.095Z,20.05
2022-09-13T09:22:55.231Z,22.63
2022-09-13T09:25:26.865Z,23.40
2022-09-13T09:27:54.593Z,23.23
2022-09-13T09:30:22.424Z,24.02
2022-09-13T09:33:24.449Z,20.17
2022-09-13T09:36:16.934Z,22.88
2022-09-13T09:38:44.899Z,17.50
2022-09-13T09:41:32.477Z,21.75
2022-09-13T09:44:17.342Z,19.63
2022-09-13T09:46:57.198Z,21.05
2022-09-13T09:49:54.419Z,20.17
2022-09-13T09:52:28.741Z,19.83
2022-09-13T09:55:11.405Z,17.33
2022-09-13T09:57:57.841Z,12.90
2022-09-13T10:00:31.267Z,17.65
2022-09-13T10:03:18.467Z,13.07
2022-09-13T10:05:47.693Z,14.73
2022-09-13T10:08:28.779Z,13.70
2022-09-13T10:11:09.051Z,16.08
2022-09-13T10:13:39.218Z,16.08
2022-09-13T10:16:23.672Z,15.60
2022-09-13T10:18:52.618Z,17.50
2022-09-13T10:21:19.897Z,17.17
2022-09-13T10:23:50.960Z,15.57
2022-09-13T10:26:22.096Z,15.05
2022-09-13T10:28:58.926Z,18.23
2022-09-13T10:31:40.300Z,16.23
2022-09-13T10:34:43.341Z,17.95
2022-09-13T10:37:34.170Z,14.73
2022-09-13T10:40:38.422Z,14.35
2022-09-13T10:43:19.578Z,11.93
2022-09-13T10:45:52.216Z,14.65
2022-09-13T10:48:21.128Z,15.00
2022-09-13T10:51:18.941Z,8.85
2022-09-13T10:53:46.216Z,10.20
2022-09-13T10:56:33.790Z,6.68
2022-09-13T10:59:26.135Z,7.70
2022-09-13T11:01:53.711Z,6.63
2022-09-13T11:04:46.354Z,6.20
2022-09-13T11:07:35.766Z,7.78
2022-09-13T11:10:29.504Z,7.50
2022-09-13T11:13:31.129Z,10.00
2022-09-13T11:16:17.277Z,12.18
2022-09-13T11:19:29.183Z,9.30
2022-09-13T11:22:21.369Z,7.53
2022-09-13T11:25:11.562Z,7.75
2022-09-13T11:30:30.126Z,10.32
2022-09-13T11:33:05.027Z,11.60
2022-09-13T11:35:48.488Z,11.02
2022-09-13T11:38:48.066Z,8.85
2022-09-13T11:41:31.389Z,13.85
2022-09-13T11:44:18.122Z,9.00
2022-09-13T11:46:57.260Z,7.70
2022-09-13T11:49:33.870Z,8.02
2022-09-13T11:52:13.338Z,8.15
2022-09-13T11:54:57.837Z,6.47
2022-09-13T11:57:32.871Z,10.27
2022-09-13T12:00:11.074Z,6.72
2022-09-13T12:02:52.789Z,5.40
2022-09-13T12:05:24.014Z,11.77
2022-09-13T12:08:28.251Z,8.48
2022-09-13T12:11:05.084Z,7.20
2022-09-13T12:13:41.755Z,9.50
2022-09-13T12:16:16.599Z,6.53
2022-09-13T12:18:46.951Z,4.32
2022-09-13T12:23:52.825Z,5.10
2022-09-13T12:26:40.028Z,5.35
2022-09-13T12:29:26.456Z,7.38
2022-09-13T12:31:59.665Z,3.67
2022-09-13T12:35:09.593Z,5.13
2022-09-13T12:37:48.834Z,5.18
2022-09-13T12:40:31.691Z,6.20
2022-09-13T12:43:40.509Z,3.90
2022-09-13T12:46:39.319Z,3.85
2022-09-13T12:49:41.680Z,3.35
2022-09-13T12:52:43.197Z,3.83
2022-09-13T12:55:47.779Z,3.33
2022-09-13T12:58:37.635Z,4.25
2022-09-13T13:01:18.204Z,3.80
2022-09-13T13:04:04.089Z,3.30
2022-09-13T13:06:37.600Z,3.85
2022-09-13T13:09:25.294Z,2.42
2022-09-13T13:11:58.717Z,2.70
2022-09-13T13:17:38.771Z,2.88
2022-09-13T13:20:44.271Z,2.25
2022-09-13T13:23:37.022Z,3.85
2022-09-13T13:26:16.554Z,4.50
2022-09-13T13:28:47.299Z,3.40
2022-09-13T13:31:31.171Z,3.50
2022-09-13T13:34:15.258Z,6.07
2022-09-13T13:36:49.292Z,3.95
2022-09-13T13:39:25.865Z,2.95
2022-09-13T13:42:11.674Z,1.83
2022-09-13T13:44:43.385Z,3.65
2022-09-13T13:47:15.053Z,5.07
2022-09-13T13:49:52.900Z,5.32
2022-09-13T13:52:23.192Z,3.58
2022-09-13T13:55:21.420Z,2.25
2022-09-13T13:58:08.176Z,3.72
2022-09-13T14:00:37.046Z,2.92
2022-09-13T14:03:38.474Z,4.70
2022-09-13T14:06:29.143Z,3.38
2022-09-13T14:09:43.903Z,6.55
2022-09-13T14:12:26.581Z,4.85
2022-09-13T14:15:27.346Z,2.97
2022-09-13T14:18:15.231Z,1.88
2022-09-13T14:21:18.832Z,1.85
2022-09-13T14:23:46.612Z,2.78
2022-09-13T14:26:18.522Z,3.97
2022-09-13T14:28:46.599Z,4.88
2022-09-13T14:31:20.545Z,3.40
2022-09-13T14:33:55.232Z,5.55
2022-09-13T14:36:33.211Z,3.80
2022-09-13T14:39:02.901Z,3.63
2022-09-13T14:41:37.443Z,3.35
2022-09-13T14:44:29.032Z,6.68
2022-09-13T14:47:32.970Z,3.85
2022-09-13T14:50:13.336Z,3.15
2022-09-13T14:55:21.935Z,5.63
2022-09-13T14:57:54.095Z,5.63
2022-09-13T15:00:26.566Z,2.40
2022-09-13T15:03:11.285Z,5.13
2022-09-13T15:05:41.444Z,4.50
2022-09-13T15:08:50.362Z,8.10
2022-09-13T15:11:38.083Z,2.67
2022-09-13T15:14:16.502Z,2.35
2022-09-13T15:17:22.862Z,1.40
2022-09-13T15:20:05.735Z,5.10
2022-09-13T15:22:36.081Z,3.38
2022-09-13T15:25:23.408Z,2.85
2022-09-13T15:27:51.718Z,2.80
2022-09-13T15:30:39.438Z,4.60
2022-09-13T15:33:13.134Z,4.22
2022-09-13T15:35:43.511Z,10.02
2022-09-13T15:38:28.656Z,3.85
2022-09-13T15:41:20.346Z,5.45
2022-09-13T15:43:51.303Z,6.47
2022-09-13T15:46:22.382Z,5.65
2022-09-13T15:49:21.027Z,3.90
2022-09-13T15:51:53.211Z,8.25
2022-09-13T15:54:25.434Z,6.07
2022-09-13T15:56:53.211Z,10.05
2022-09-13T15:59:23.441Z,8.35
2022-09-13T16:01:52.210Z,5.47
2022-09-13T16:04:22.223Z,4.93
2022-09-13T16:06:54.628Z,5.05
2022-09-13T16:09:27.332Z,4.65
2022-09-13T16:11:55.299Z,3.55
2022-09-13T16:14:22.911Z,5.78
2022-09-13T16:16:52.075Z,5.45
2022-09-13T16:19:22.572Z,4.43
2022-09-13T16:21:51.691Z,5.28
2022-09-13T16:24:19.559Z,3.88
2022-09-13T16:26:47.810Z,5.43
2022-09-13T16:29:15.298Z,3.65
2022-09-13T16:31:42.880Z,5.35
2022-09-13T16:34:10.849Z,2.97
2022-09-13T16:36:38.716Z,7.18
2022-09-13T16:39:06.117Z,5.47
2022-09-13T16:41:40.791Z,5.95
2022-09-13T16:44:09.313Z,5.50
2022-09-13T16:46:37.294Z,3.03
2022-09-13T16:49:05.176Z,5.25
2022-09-13T16:51:32.908Z,5.60
2022-09-13T16:54:04.047Z,11.30
2022-09-13T16:56:34.733Z,3.67
2022-09-13T16:59:03.991Z,6.45
2022-09-13T17:01:32.904Z,5.00
2022-09-13T17:04:02.904Z,6.10
2022-09-13T17:06:32.569Z,4.15
2022-09-13T17:09:02.691Z,6.47
2022-09-13T17:11:37.528Z,8.95
2022-09-13T17:14:16.694Z,4.65
2022-09-13T17:16:50.086Z,4.35
2022-09-13T17:19:24.773Z,3.88
2022-09-13T17:21:53.805Z,4.22
2022-09-13T17:24:33.492Z,7.78
2022-09-13T17:27:09.574Z,4.57
2022-09-13T17:29:37.755Z,5.13
2022-09-13T17:32:23.816Z,6.10
2022-09-13T17:34:52.570Z,5.75
2022-09-13T17:37:20.804Z,3.55
2022-09-13T17:39:53.528Z,6.38
2022-09-13T17:42:23.529Z,3.38
2022-09-13T17:44:51.323Z,4.85
2022-09-13T17:47:21.467Z,4.07
2022-09-13T17:52:17.549Z,2.92
2022-09-13T17:54:46.755Z,4.80
2022-09-13T17:57:15.769Z,4.57
2022-09-13T17:59:43.823Z,5.18
2022-09-13T18:02:11.308Z,6.97
2022-09-13T18:04:38.975Z,5.15
2022-09-13T18:07:37.134Z,7.95
2022-09-13T18:10:13.012Z,6.85
2022-09-13T18:12:54.116Z,5.68
2022-09-13T18:15:22.532Z,6.57
2022-09-13T18:17:50.270Z,10.90
2022-09-13T18:20:18.532Z,6.03
2022-09-13T18:22:46.246Z,5.13
2022-09-13T18:25:14.547Z,4.20
2022-09-13T18:27:43.228Z,5.43
2022-09-13T18:30:12.771Z,6.38
2022-09-13T18:32:40.316Z,6.47
2022-09-13T18:35:10.093Z,5.70
2022-09-13T18:37:37.866Z,8.30
2022-09-13T18:40:09.352Z,5.22
2022-09-13T18:42:40.873Z,6.53
2022-09-13T18:45:11.482Z,8.00
2022-09-13T18:47:39.295Z,4.38
2022-09-13T18:50:11.219Z,6.93
2022-09-13T18:52:41.079Z,10.40
2022-09-13T18:55:09.973Z,6.23
2022-09-13T18:57:45.677Z,5.32
2022-09-13T19:00:14.223Z,5.35
2022-09-13T19:03:01.989Z,7.30
2022-09-13T19:05:36.322Z,7.32
2022-09-13T19:08:11.038Z,5.65
2022-09-13T19:10:40.264Z,5.13
2022-09-13T19:13:08.782Z,5.85
2022-09-13T19:15:36.932Z,3.78
2022-09-13T19:18:05.652Z,8.18
2022-09-13T19:20:33.601Z,3.95
2022-09-13T19:23:04.016Z,7.20
2022-09-13T19:28:03.915Z,6.20
2022-09-13T19:30:35.380Z,4.13
2022-09-13T19:33:03.616Z,3.80
2022-09-13T19:35:36.039Z,6.18
2022-09-13T19:38:03.820Z,4.90
2022-09-13T19:40:34.759Z,5.25
2022-09-13T19:43:05.472Z,4.03
2022-09-13T19:45:33.851Z,4.13
2022-09-13T19:50:52.252Z,3.67
2022-09-13T19:53:40.782Z,6.35
2022-09-13T19:56:16.644Z,4.47
2022-09-13T19:58:44.592Z,4.38
2022-09-13T20:01:18.119Z,10.20
2022-09-13T20:04:16.236Z,5.75
2022-09-13T20:06:46.426Z,10.40
2022-09-13T20:09:17.530Z,6.30
2022-09-13T20:11:45.656Z,5.05
2022-09-13T20:14:14.876Z,4.38
2022-09-13T20:16:45.949Z,7.50
2022-09-13T20:22:09.689Z,5.63
2022-09-13T20:24:40.304Z,4.13
2022-09-13T20:27:08.208Z,4.68
2022-09-13T20:29:35.550Z,6.72
2022-09-13T20:32:03.472Z,7.25
2022-09-13T20:34:35.317Z,3.95
2022-09-13T20:37:03.594Z,8.07
2022-09-13T20:39:35.600Z,8.07
2022-09-13T20:42:03.868Z,7.68
2022-09-13T20:44:33.911Z,16.63
2022-09-13T20:47:02.840Z,5.00
2022-09-13T20:49:33.094Z,5.03
2022-09-13T20:52:01.560Z,9.73
2022-09-13T20:54:32.891Z,10.73
2022-09-13T20:57:02.080Z,9.70
2022-09-13T20:59:29.731Z,10.50
2022-09-13T21:02:01.581Z,11.10
2022-09-13T21:04:28.958Z,8.15
2022-09-13T21:07:15.428Z,11.32
2022-09-13T21:09:44.239Z,7.40
2022-09-13T21:12:11.557Z,8.30
2022-09-13T21:14:39.835Z,8.60
2022-09-13T21:17:08.999Z,7.72
2022-09-13T21:19:37.394Z,6.15
2022-09-13T21:22:04.931Z,4.80
2022-09-13T21:24:35.409Z,8.57
2022-09-13T21:29:40.927Z,9.15
2022-09-13T21:32:10.179Z,6.65
2022-09-13T21:34:40.076Z,6.05
2022-09-13T21:37:07.878Z,5.45
2022-09-13T21:39:35.419Z,5.50
2022-09-13T21:42:05.176Z,9.15
2022-09-13T21:44:41.835Z,7.40
2022-09-13T21:47:10.836Z,9.95
2022-09-13T21:49:39.393Z,8.70
2022-09-13T21:52:10.248Z,8.05
2022-09-13T21:54:38.072Z,5.47
2022-09-13T21:57:07.773Z,8.18
2022-09-13T21:59:35.713Z,8.68
2022-09-13T22:02:04.336Z,11.63
2022-09-13T22:04:37.443Z,6.63
2022-09-13T22:10:11.961Z,9.13
2022-09-13T22:12:40.085Z,8.65
2022-09-13T22:15:08.701Z,6.72
2022-09-13T22:17:36.373Z,6.35
2022-09-13T22:20:04.357Z,6.35
2022-09-13T22:22:36.044Z,5.72
2022-09-13T22:25:04.070Z,10.10
2022-09-13T22:27:34.293Z,6.13
2022-09-13T22:30:04.324Z,11.73
2022-09-13T22:32:34.268Z,9.18
2022-09-13T22:35:07.064Z,9.32
2022-09-13T22:37:35.616Z,9.00
2022-09-13T22:40:04.911Z,7.13
2022-09-13T22:42:35.188Z,7.45
2022-09-13T22:45:04.216Z,12.05
2022-09-13T22:47:34.203Z,10.48
2022-09-13T22:50:03.783Z,9.68
2022-09-13T22:52:33.823Z,7.22
2022-09-13T22:55:04.671Z,7.82
2022-09-13T23:00:05.523Z,8.32
2022-09-13T23:02:35.818Z,9.27
2022-09-13T23:05:04.330Z,6.65
2022-09-13T23:07:34.831Z,9.73
2022-09-13T23:12:34.405Z,12.23
2022-09-13T23:15:02.911Z,10.85
2022-09-13T23:17:33.279Z,11.05
2022-09-13T23:20:06.373Z,10.98
2022-09-13T23:28:38.374Z,7.32
2022-09-13T23:31:17.904Z,10.52
2022-09-13T23:33:50.831Z,9.00
2022-09-13T23:36:22.837Z,8.93
2022-09-13T23:38:53.090Z,7.00
2022-09-13T23:41:21.532Z,10.30
2022-09-13T23:43:49.922Z,12.50
2022-09-13T23:46:17.495Z,7.82
